createdAt,value
2018-01-31T05:30:43.368Z,5.80
2018-01-31T05:33:11.644Z,5.90
2018-01-31T05:35:39.872Z,5.80
2018-01-31T05:38:08.111Z,5.80
2018-01-31T05:40:36.327Z,5.80
2018-01-31T05:43:04.564Z,5.80
2018-01-31T05:45:32.820Z,5.80
2018-01-31T05:48:01.096Z,5.80
2018-01-31T05:50:29.397Z,5.70
2018-01-31T05:52:57.647Z,5.70
2018-01-31T05:55:25.859Z,5.70
2018-01-31T05:57:54.188Z,5.70
2018-01-31T06:00:23.300Z,5.80
2018-01-31T06:02:51.515Z,5.80
2018-01-31T06:05:19.752Z,5.90
2018-01-31T06:07:48.033Z,5.90
2018-01-31T06:10:16.242Z,5.90
2018-01-31T06:12:44.585Z,6.00
2018-01-31T06:15:12.856Z,6.00
2018-01-31T06:17:41.136Z,6.00
2018-01-31T06:20:09.352Z,6.10
2018-01-31T06:22:37.575Z,6.00
2018-01-31T06:25:06.585Z,6.00
2018-01-31T06:27:34.801Z,6.00
2018-01-31T06:30:03.028Z,6.00
2018-01-31T06:32:31.264Z,6.00
2018-01-31T06:34:59.477Z,6.00
2018-01-31T06:37:28.474Z,5.90
2018-01-31T06:39:57.697Z,5.90
2018-01-31T06:42:26.946Z,5.90
2018-01-31T06:44:55.116Z,5.90
2018-01-31T06:47:23.352Z,5.90
2018-01-31T06:49:51.599Z,6.00
2018-01-31T06:52:19.877Z,6.10
2018-01-31T06:54:48.161Z,6.30
2018-01-31T06:57:16.403Z,6.40
2018-01-31T06:59:44.705Z,6.40
2018-01-31T07:02:12.917Z,6.40
2018-01-31T07:04:41.144Z,6.40
2018-01-31T07:07:10.138Z,6.30
2018-01-31T07:09:39.142Z,6.20
2018-01-31T07:12:07.697Z,6.20
2018-01-31T07:14:35.909Z,6.10
2018-01-31T07:17:04.182Z,6.00
2018-01-31T07:19:32.456Z,5.90
2018-01-31T07:22:00.738Z,5.90
2018-01-31T07:24:29.013Z,5.90
2018-01-31T07:26:57.220Z,5.80
2018-01-31T07:29:25.461Z,5.80
2018-01-31T16:01:42.293Z,8.40
2018-01-31T16:04:09.772Z,8.40
2018-01-31T16:06:38.116Z,8.40
2018-01-31T16:09:05.614Z,8.40
2018-01-31T16:11:33.255Z,8.30
2018-01-31T16:14:01.532Z,8.30
2018-01-31T16:16:30.304Z,8.30
2018-01-31T16:19:10.360Z,8.30
2018-01-31T16:21:38.423Z,8.30
2018-01-31T16:24:06.412Z,8.20
2018-01-31T16:26:35.136Z,8.20
2018-01-31T16:29:14.672Z,8.20
2018-01-31T16:31:54.579Z,8.20
2018-01-31T16:34:22.565Z,8.20
2018-01-31T16:36:51.307Z,8.20
2018-01-31T16:39:19.308Z,8.20
2018-01-31T16:41:47.448Z,8.20
2018-01-31T16:44:15.396Z,8.20
2018-01-31T16:46:43.360Z,8.30
2018-01-31T16:49:11.348Z,8.30
2018-01-31T16:51:39.314Z,8.30
2018-01-31T16:54:07.305Z,8.30
2018-01-31T16:56:35.271Z,8.40
2018-01-31T16:59:03.338Z,8.30
2018-01-31T17:01:31.292Z,8.30
2018-01-31T17:03:59.280Z,8.40
2018-01-31T17:06:27.323Z,8.30
2018-01-31T17:08:56.123Z,8.30
2018-01-31T17:11:24.104Z,8.30
2018-01-31T17:13:52.084Z,8.30
2018-01-31T17:16:21.816Z,8.20
2018-01-31T17:18:50.809Z,8.20
2018-01-31T17:21:19.776Z,8.20
2018-01-31T17:23:48.000Z,8.20
2018-01-31T17:26:21.053Z,8.20
2018-01-31T17:28:50.131Z,8.30
2018-01-31T17:31:19.260Z,8.30
2018-01-31T17:33:48.256Z,8.30
2018-01-31T17:36:17.225Z,8.30
2018-01-31T17:38:45.452Z,8.30
2018-01-31T17:41:13.649Z,8.10
2018-01-31T17:43:41.954Z,7.90
2018-01-31T17:46:10.241Z,7.70
2018-01-31T17:48:39.242Z,7.50
2018-01-31T17:51:08.233Z,7.40
2018-01-31T17:53:37.328Z,7.40
2018-01-31T17:56:06.321Z,7.30
2018-01-31T17:58:35.313Z,7.30
2018-01-31T18:01:04.310Z,7.30
2018-01-31T18:03:35.010Z,7.30
2018-01-31T18:06:03.322Z,7.20
2018-01-31T18:08:31.668Z,7.20
2018-01-31T18:11:00.009Z,7.20
2018-01-31T18:13:28.290Z,7.20
2018-01-31T18:15:56.480Z,7.20
2018-01-31T18:18:24.874Z,7.20
2018-01-31T18:20:53.036Z,7.20
2018-01-31T18:23:21.352Z,7.10
2018-01-31T18:25:50.344Z,7.00
2018-01-31T18:28:19.339Z,7.00
2018-01-31T18:30:48.369Z,6.90
2018-01-31T18:33:16.684Z,6.90
2018-01-31T18:35:44.874Z,6.90
2018-01-31T18:38:13.951Z,6.90
2018-01-31T18:40:42.130Z,6.90
2018-01-31T18:43:11.823Z,6.90
2018-01-31T18:45:40.162Z,6.80
2018-01-31T18:48:08.516Z,6.80
2018-01-31T18:50:37.519Z,6.80
2018-01-31T18:53:06.781Z,6.70
2018-01-31T18:55:35.058Z,6.70
2018-01-31T18:58:03.468Z,6.70
2018-01-31T19:00:32.432Z,6.60
2018-01-31T19:03:00.656Z,6.60
2018-01-31T19:05:28.917Z,6.50
2018-01-31T19:07:57.476Z,6.50
2018-01-31T19:10:27.169Z,6.40
2018-01-31T19:12:55.365Z,6.40
2018-01-31T19:15:24.443Z,6.30
2018-01-31T19:17:52.681Z,6.30
2018-01-31T19:20:21.003Z,6.30
2018-01-31T19:22:49.248Z,6.30
2018-01-31T19:25:17.465Z,6.20
2018-01-31T19:27:46.457Z,6.20
2018-01-31T19:30:15.645Z,6.20
2018-01-31T19:32:43.832Z,6.20
2018-01-31T19:35:12.959Z,6.10
2018-01-31T19:37:41.184Z,6.10
2018-01-31T19:40:09.440Z,6.10
2018-01-31T19:42:38.183Z,6.00
2018-01-31T19:45:07.564Z,6.00
2018-01-31T19:47:36.601Z,6.00
2018-01-31T19:50:04.788Z,5.90
2018-01-31T19:52:33.184Z,5.90
2018-01-31T19:55:02.712Z,5.90
2018-01-31T19:57:31.137Z,5.90
2018-01-31T19:59:59.448Z,5.90
2018-01-31T20:02:27.697Z,5.80
2018-01-31T20:04:56.118Z,5.80
2018-01-31T20:07:25.834Z,5.70
2018-01-31T20:09:54.132Z,5.70
2018-01-31T20:12:23.185Z,5.70
2018-01-31T20:14:51.418Z,5.70
2018-01-31T20:17:20.454Z,5.60
2018-01-31T20:19:49.601Z,5.60
2018-01-31T20:22:17.839Z,5.60
2018-01-31T20:24:46.037Z,5.60
2018-01-31T20:27:15.079Z,5.50
2018-01-31T20:29:43.391Z,5.50
2018-01-31T20:32:11.636Z,5.50
2018-01-31T20:34:39.872Z,5.50
2018-01-31T20:37:08.848Z,5.50
2018-01-31T20:39:37.727Z,5.50
2018-01-31T20:42:05.939Z,5.50
2018-01-31T20:44:34.929Z,5.40
2018-01-31T20:47:03.985Z,5.40
2018-01-31T20:49:32.220Z,5.40
2018-01-31T20:52:00.432Z,5.40
2018-01-31T20:54:28.680Z,5.40
2018-01-31T20:56:56.917Z,5.40
2018-01-31T20:59:25.197Z,5.40
2018-01-31T21:01:54.235Z,5.30
2018-01-31T21:04:22.411Z,5.30
2018-01-31T21:06:50.638Z,5.30
2018-01-31T21:09:19.676Z,5.30
2018-01-31T21:11:47.943Z,5.30
2018-01-31T21:14:16.481Z,5.30
2018-01-31T21:16:44.799Z,5.30
2018-01-31T21:19:13.033Z,5.20
2018-01-31T21:21:41.303Z,5.30
2018-01-31T21:24:09.553Z,5.20
2018-01-31T21:26:37.786Z,5.20
2018-01-31T21:29:06.096Z,5.20
2018-01-31T21:31:34.376Z,5.20
2018-01-31T21:34:02.581Z,5.20
2018-01-31T21:36:30.828Z,5.20
2018-01-31T21:38:59.188Z,5.20
2018-01-31T21:41:27.381Z,5.20
2018-01-31T21:43:55.714Z,5.20
2018-01-31T21:46:24.706Z,5.10
2018-01-31T21:48:53.720Z,5.10
2018-01-31T21:51:21.953Z,5.10
2018-01-31T21:53:50.305Z,5.10
2018-01-31T21:56:18.562Z,5.10
2018-01-31T21:58:46.773Z,5.10
2018-01-31T22:01:15.084Z,5.10
2018-01-31T22:03:44.085Z,5.10
2018-01-31T22:06:12.674Z,5.00
2018-01-31T22:08:40.889Z,5.00
2018-01-31T22:11:09.267Z,5.00
2018-01-31T22:13:37.518Z,5.00
2018-01-31T22:16:05.703Z,5.00
2018-01-31T22:18:33.936Z,5.00
2018-01-31T22:21:02.925Z,4.90
2018-01-31T22:23:31.905Z,5.00
2018-01-31T22:26:01.736Z,5.00
2018-01-31T22:28:30.728Z,5.00
2018-01-31T22:30:59.824Z,5.00
2018-01-31T22:33:28.788Z,5.00
2018-01-31T22:35:57.136Z,5.00
2018-01-31T22:38:25.370Z,5.00
2018-01-31T22:40:54.394Z,5.00
2018-01-31T22:43:22.640Z,4.90
2018-01-31T22:45:51.628Z,5.00
2018-01-31T22:48:20.616Z,5.00
2018-01-31T22:50:49.646Z,5.00
2018-01-31T22:53:17.898Z,5.00
2018-01-31T22:55:46.847Z,4.90
2018-01-31T22:58:15.049Z,5.00
2018-01-31T23:00:44.040Z,5.00
2018-01-31T23:03:13.009Z,5.00
2018-01-31T23:05:41.325Z,5.00
2018-01-31T23:08:10.288Z,5.00
2018-01-31T23:10:38.508Z,5.00
2018-01-31T23:13:12.388Z,5.00
2018-01-31T23:15:41.392Z,5.00
2018-01-31T23:18:16.097Z,5.10
2018-01-31T23:20:44.397Z,5.00
2018-01-31T23:23:13.357Z,5.00
2018-01-31T23:25:42.454Z,5.00
2018-01-31T23:28:10.625Z,5.00
2018-01-31T23:30:38.929Z,5.00
2018-01-31T23:33:08.029Z,5.10
2018-01-31T23:35:37.305Z,5.10
2018-01-31T23:38:05.498Z,5.10
2018-01-31T23:40:34.808Z,5.10
2018-01-31T23:43:04.482Z,5.10
